Decoded Metar for EGUN (MILDENHALL in ENGLAND) (IATA:MHZ) | Meteo·Mobile Aviation Weather
aviador You're here:

EGUN Decoded Metar

MILDENHALL in ENGLAND
Report Time2019-05-22 06:56:00
UTC Time2019-05-22 07:09:11
Flight Rules vfr VFR
Wind290° at 04 kt
W.Decomp.*RWY 29: 4.0 kt HW 0.1 kt RCW
Visibility9999 m
Phenomena:N/A
Clouds:N/A
Expected CloudBase > 800 ft AGL from Temp-Dew spread
CeilingNone
Temp12°C (ISA -3)
Dew Point10°C (88% RH)
AAT10.6°C
QNH1020 hPa
Density Alt-387 ft
Elevation33 ft
Report Wrong Elevation
Raw Report
METAR EGUN 220656Z 29004KT 9999 CLR 12/10 A3011 RMK AO2A SLPNO T01160095
$=

Extra information for EGUN:More info

Metar Taf Metar & Taf Last 4 Metars F.Rules Stats Wind Profile Meteogram Temp Stats Airport Information Weather charts Add Link Nearby VenuesMetar ALERT Operation Metar Decoded Social comments